To NAV CANADA Home Page Login to a new session Search on AWWS site Disclaimer Vers la page française équivalente Tips FAQ What's new on the site To the Forecasts and Observations / NOTAM section To "File a Flight Plan" website Publications and other links Update of the User's profile FIC Telephone Numbers My Weather Data Folder Route Weather Data Regional Weather Data Local Weather Data To the Forecasts and Observations / NOTAM section
Request Generated 04/24/2019 at 16:21:24 UTC . Weather information available at that time is displayed.

METAR/TAF

RED DEER REGIONAL/AB    

METAR CYQF 241600Z 33008KT 320V020 15SM BKN078 OVC200 07/M07 A2997 RMK AC6CI2 VIRGA SLP175=
METAR CYQF 241500Z 02007KT 15SM SCT074 BKN200 06/M07 A2996 RMK AC3CI4 SLP170=
METAR CYQF 241400Z 29004KT 15SM SCT080 BKN200 03/M05 A2996 RMK AC4CI2 SLP171=

TAF CYQF 241138Z 2412/2424 34005KT P6SM SCT100 TEMPO 2412/2415 P6SM
VCSH BKN100
FM241800 32015G25KT P6SM SCT050 TEMPO 2418/2424 P6SM -SHRA BKN050
RMK NXT FCST BY 241800Z=
Your time UTC time
Weather data provided by Environment Canada and NAV CANADA